Terminal Aerodrome Forecast
Issued by NWS Paducah, KY

Home | Current Version | Previous Version | Text Only | Print | Product List | Glossary On
Versions: 1 2 3 4 5 6 7 8 9 10 11 12 13 14 15 16 17
000
FTUS43 KPAH 180520
TAFPAH
TAF
KPAH 180520Z 1806/1906 VRB03KT P6SM SCT150
     FM180900 VRB03KT 4SM BR SCT050
      TEMPO 1809/1812 2SM BR
     FM181300 VRB03KT P6SM SKC
     FM181600 29007KT P6SM SCT045
     FM190000 VRB03KT P6SM SCT050 BKN250=

USA.gov is the U.S. government's official web portal to all federal, state and local government web resources and services.